sensor_id;sensor_type;location;lat;lon;timestamp;pressure;altitude;pressure_sealevel;temperature;humidity
48204;BME280;33994;50.998;5.864;2023-07-31T00:02:44;100708.69;;;16.26;100.00
48204;BME280;33994;50.998;5.864;2023-07-31T00:05:49;100696.44;;;16.25;100.00
48204;BME280;33994;50.998;5.864;2023-07-31T00:08:52;100714.78;;;16.28;100.00
48204;BME280;33994;50.998;5.864;2023-07-31T00:11:55;100696.31;;;16.28;100.00
48204;BME280;33994;50.998;5.864;2023-07-31T00:14:59;100696.31;;;16.28;100.00
48204;BME280;33994;50.998;5.864;2023-07-31T00:18:02;100692.88;;;16.26;100.00
48204;BME280;33994;50.998;5.864;2023-07-31T00:21:07;100685.03;;;16.25;100.00
48204;BME280;33994;50.998;5.864;2023-07-31T00:24:10;100673.53;;;16.26;100.00
48204;BME280;33994;50.998;5.864;2023-07-31T00:27:13;100684.13;;;16.24;100.00
48204;BME280;33994;50.998;5.864;2023-07-31T00:30:16;100672.69;;;16.25;100.00
48204;BME280;33994;50.998;5.864;2023-07-31T00:33:19;100676.19;;;16.26;100.00
48204;BME280;33994;50.998;5.864;2023-07-31T00:36:24;100671.75;;;16.26;100.00
48204;BME280;33994;50.998;5.864;2023-07-31T00:39:29;100662.97;;;16.26;99.58
48204;BME280;33994;50.998;5.864;2023-07-31T00:42:33;100661.19;;;16.26;99.51
48204;BME280;33994;50.998;5.864;2023-07-31T00:45:36;100667.44;;;16.24;99.33
48204;BME280;33994;50.998;5.864;2023-07-31T00:48:40;100675.44;;;16.22;99.18
48204;BME280;33994;50.998;5.864;2023-07-31T00:51:44;100672.88;;;16.21;99.47
48204;BME280;33994;50.998;5.864;2023-07-31T00:54:48;100677.28;;;16.20;99.41
48204;BME280;33994;50.998;5.864;2023-07-31T00:57:52;100670.28;;;16.19;99.36
48204;BME280;33994;50.998;5.864;2023-07-31T01:00:55;100665.94;;;16.18;99.54
48204;BME280;33994;50.998;5.864;2023-07-31T01:03:58;100668.69;;;16.15;99.44
48204;BME280;33994;50.998;5.864;2023-07-31T01:07:11;100665.13;;;16.16;99.47
48204;BME280;33994;50.998;5.864;2023-07-31T01:10:19;100664.16;;;16.19;99.80
48204;BME280;33994;50.998;5.864;2023-07-31T01:13:24;100661.44;;;16.20;99.83
48204;BME280;33994;50.998;5.864;2023-07-31T01:16:27;100657.91;;;16.21;99.79
48204;BME280;33994;50.998;5.864;2023-07-31T01:19:30;100659.63;;;16.22;99.68
48204;BME280;33994;50.998;5.864;2023-07-31T01:26:11;100657.63;;;16.27;100.00
48204;BME280;33994;50.998;5.864;2023-07-31T01:29:19;100654.94;;;16.29;100.00
48204;BME280;33994;50.998;5.864;2023-07-31T01:32:24;100650.41;;;16.33;100.00
48204;BME280;33994;50.998;5.864;2023-07-31T01:35:29;100650.41;;;16.33;100.00
48204;BME280;33994;50.998;5.864;2023-07-31T01:38:32;100654.75;;;16.34;100.00
48204;BME280;33994;50.998;5.864;2023-07-31T01:41:37;100644.97;;;16.36;100.00
48204;BME280;33994;50.998;5.864;2023-07-31T01:44:40;100648.31;;;16.41;100.00
48204;BME280;33994;50.998;5.864;2023-07-31T01:47:43;100652.56;;;16.43;100.00
48204;BME280;33994;50.998;5.864;2023-07-31T01:50:46;100648.19;;;16.44;100.00
48204;BME280;33994;50.998;5.864;2023-07-31T01:53:49;100644.59;;;16.45;100.00
48204;BME280;33994;50.998;5.864;2023-07-31T01:56:54;100632.19;;;16.47;100.00
48204;BME280;33994;50.998;5.864;2023-07-31T01:59:57;100628.56;;;16.49;100.00
48204;BME280;33994;50.998;5.864;2023-07-31T02:03:00;100634.66;;;16.51;100.00
48204;BME280;33994;50.998;5.864;2023-07-31T02:06:03;100635.50;;;16.52;100.00
48204;BME280;33994;50.998;5.864;2023-07-31T02:09:06;100625.81;;;16.52;100.00
48204;BME280;33994;50.998;5.864;2023-07-31T02:12:11;100630.22;;;16.52;100.00
48204;BME280;33994;50.998;5.864;2023-07-31T02:15:14;100616.19;;;16.51;100.00
48204;BME280;33994;50.998;5.864;2023-07-31T02:18:17;100613.47;;;16.53;100.00
48204;BME280;33994;50.998;5.864;2023-07-31T02:21:20;100612.53;;;16.54;100.00
48204;BME280;33994;50.998;5.864;2023-07-31T02:24:24;100614.22;;;16.55;99.77
48204;BME280;33994;50.998;5.864;2023-07-31T02:27:28;100615.16;;;16.54;99.74
48204;BME280;33994;50.998;5.864;2023-07-31T02:30:32;100612.53;;;16.54;99.86
48204;BME280;33994;50.998;5.864;2023-07-31T02:33:35;100607.25;;;16.54;99.78
48204;BME280;33994;50.998;5.864;2023-07-31T02:36:38;100601.97;;;16.54;99.75
48204;BME280;33994;50.998;5.864;2023-07-31T02:39:41;100601.97;;;16.54;99.96
48204;BME280;33994;50.998;5.864;2023-07-31T02:42:46;100594.03;;;16.54;99.86
48204;BME280;33994;50.998;5.864;2023-07-31T02:45:51;100593.13;;;16.55;99.88
48204;BME280;33994;50.998;5.864;2023-07-31T02:48:54;100600.13;;;16.56;100.00
48204;BME280;33994;50.998;5.864;2023-07-31T02:51:57;100594.72;;;16.59;100.00
48204;BME280;33994;50.998;5.864;2023-07-31T02:55:00;100593.13;;;16.55;100.00
48204;BME280;33994;50.998;5.864;2023-07-31T02:58:05;100590.44;;;16.57;100.00
48204;BME280;33994;50.998;5.864;2023-07-31T03:01:08;100573.72;;;16.56;100.00
48204;BME280;33994;50.998;5.864;2023-07-31T03:04:11;100591.28;;;16.57;100.00
48204;BME280;33994;50.998;5.864;2023-07-31T03:07:14;100585.06;;;16.58;100.00
48204;BME280;33994;50.998;5.864;2023-07-31T03:10:17;100589.44;;;16.59;99.85
48204;BME280;33994;50.998;5.864;2023-07-31T03:13:22;100583.22;;;16.60;99.83
48204;BME280;33994;50.998;5.864;2023-07-31T03:16:25;100582.31;;;16.61;99.74
48204;BME280;33994;50.998;5.864;2023-07-31T03:19:30;100582.16;;;16.64;99.67
48204;BME280;33994;50.998;5.864;2023-07-31T03:22:33;100575.94;;;16.65;99.76
48204;BME280;33994;50.998;5.864;2023-07-31T03:25:36;100569.75;;;16.66;99.85
48204;BME280;33994;50.998;5.864;2023-07-31T03:28:41;100574.16;;;16.66;99.96
48204;BME280;33994;50.998;5.864;2023-07-31T03:31:44;100559.97;;;16.68;100.00
48204;BME280;33994;50.998;5.864;2023-07-31T03:34:48;100563.56;;;16.67;99.49
48204;BME280;33994;50.998;5.864;2023-07-31T03:37:51;100562.63;;;16.68;99.62
48204;BME280;33994;50.998;5.864;2023-07-31T03:40:54;100559.19;;;16.66;99.37
48204;BME280;33994;50.998;5.864;2023-07-31T03:43:59;100557.56;;;16.64;99.48
48204;BME280;33994;50.998;5.864;2023-07-31T03:47:02;100546.91;;;16.65;99.77
48204;BME280;33994;50.998;5.864;2023-07-31T03:50:06;100539.78;;;16.67;99.30
48204;BME280;33994;50.998;5.864;2023-07-31T03:53:09;100548.50;;;16.69;99.29
48204;BME280;33994;50.998;5.864;2023-07-31T03:56:13;100552.06;;;16.68;99.06
48204;BME280;33994;50.998;5.864;2023-07-31T03:59:17;100545.84;;;16.69;99.62
48204;BME280;33994;50.998;5.864;2023-07-31T04:02:20;100533.50;;;16.70;99.52
48204;BME280;33994;50.998;5.864;2023-07-31T04:05:24;100534.50;;;16.67;99.02
48204;BME280;33994;50.998;5.864;2023-07-31T04:08:27;100530.22;;;16.65;98.95
48204;BME280;33994;50.998;5.864;2023-07-31T04:11:30;100530.22;;;16.65;99.13
48204;BME280;33994;50.998;5.864;2023-07-31T04:14:34;100532.78;;;16.66;99.20
48204;BME280;33994;50.998;5.864;2023-07-31T04:17:38;100525.66;;;16.68;98.74
48204;BME280;33994;50.998;5.864;2023-07-31T04:20:41;100511.53;;;16.69;99.12
48204;BME280;33994;50.998;5.864;2023-07-31T04:23:44;100510.81;;;16.66;98.97
48204;BME280;33994;50.998;5.864;2023-07-31T04:26:47;100507.19;;;16.68;98.89
48204;BME280;33994;50.998;5.864;2023-07-31T04:29:52;100514.09;;;16.71;98.82
48204;BME280;33994;50.998;5.864;2023-07-31T04:32:55;100507.09;;;16.70;98.98
48204;BME280;33994;50.998;5.864;2023-07-31T04:35:59;100495.81;;;16.66;98.64
48204;BME280;33994;50.998;5.864;2023-07-31T04:39:02;100504.75;;;16.64;98.39
48204;BME280;33994;50.998;5.864;2023-07-31T04:42:05;100508.16;;;16.66;98.33
48204;BME280;33994;50.998;5.864;2023-07-31T04:45:10;100497.69;;;16.64;98.02
48204;BME280;33994;50.998;5.864;2023-07-31T04:48:13;100491.41;;;16.67;98.01
48204;BME280;33994;50.998;5.864;2023-07-31T04:51:16;100498.53;;;16.65;97.94
48204;BME280;33994;50.998;5.864;2023-07-31T04:54:20;100490.53;;;16.66;97.93
48204;BME280;33994;50.998;5.864;2023-07-31T04:57:23;100492.31;;;16.66;97.75
48204;BME280;33994;50.998;5.864;2023-07-31T05:00:27;100486.19;;;16.65;97.71
48204;BME280;33994;50.998;5.864;2023-07-31T05:03:30;100483.50;;;16.67;97.81
48204;BME280;33994;50.998;5.864;2023-07-31T05:06:34;100476.44;;;16.67;97.88
48204;BME280;33994;50.998;5.864;2023-07-31T05:09:37;100464.00;;;16.69;97.67
48204;BME280;33994;50.998;5.864;2023-07-31T05:12:40;100460.59;;;16.67;98.30
48204;BME280;33994;50.998;5.864;2023-07-31T05:15:45;100460.59;;;16.67;98.43
48204;BME280;33994;50.998;5.864;2023-07-31T05:18:48;100460.72;;;16.64;98.99
48204;BME280;33994;50.998;5.864;2023-07-31T05:21:51;100463.41;;;16.63;99.48
48204;BME280;33994;50.998;5.864;2023-07-31T05:24:54;100473.13;;;16.62;100.00
48204;BME280;33994;50.998;5.864;2023-07-31T05:27:58;100470.63;;;16.59;100.00
48204;BME280;33994;50.998;5.864;2023-07-31T05:31:03;100465.38;;;16.59;100.00
48204;BME280;33994;50.998;5.864;2023-07-31T05:34:07;100466.34;;;16.57;100.00
48204;BME280;33994;50.998;5.864;2023-07-31T05:37:10;100463.84;;;16.53;100.00
48204;BME280;33994;50.998;5.864;2023-07-31T05:40:14;100457.97;;;16.47;100.00
48204;BME280;33994;50.998;5.864;2023-07-31T05:43:17;100459.91;;;16.43;100.00
48204;BME280;33994;50.998;5.864;2023-07-31T05:46:22;100459.97;;;16.42;100.00
48204;BME280;33994;50.998;5.864;2023-07-31T05:49:25;100467.81;;;16.43;100.00
48204;BME280;33994;50.998;5.864;2023-07-31T05:52:28;100458.06;;;16.45;100.00
48204;BME280;33994;50.998;5.864;2023-07-31T05:55:31;100453.75;;;16.43;100.00
48204;BME280;33994;50.998;5.864;2023-07-31T05:58:34;100451.06;;;16.44;100.00
48204;BME280;33994;50.998;5.864;2023-07-31T06:01:39;100435.16;;;16.46;100.00
48204;BME280;33994;50.998;5.864;2023-07-31T06:04:42;100447.41;;;16.47;100.00
48204;BME280;33994;50.998;5.864;2023-07-31T06:07:46;100441.22;;;16.48;100.00
48204;BME280;33994;50.998;5.864;2023-07-31T06:10:49;100443.66;;;16.52;100.00
48204;BME280;33994;50.998;5.864;2023-07-31T06:13:52;100442.63;;;16.55;100.00
48204;BME280;33994;50.998;5.864;2023-07-31T06:16:57;100446.88;;;16.59;100.00
48204;BME280;33994;50.998;5.864;2023-07-31T06:20:00;100439.72;;;16.61;100.00
48204;BME280;33994;50.998;5.864;2023-07-31T06:23:03;100438.03;;;16.60;100.00
48204;BME280;33994;50.998;5.864;2023-07-31T06:26:06;100443.16;;;16.63;100.00
48204;BME280;33994;50.998;5.864;2023-07-31T06:29:09;100436.03;;;16.65;100.00
48204;BME280;33994;50.998;5.864;2023-07-31T06:32:14;100443.00;;;16.66;100.00
48204;BME280;33994;50.998;5.864;2023-07-31T06:35:17;100442.88;;;16.69;100.00
48204;BME280;33994;50.998;5.864;2023-07-31T06:38:24;100444.44;;;16.73;100.00
48204;BME280;33994;50.998;5.864;2023-07-31T06:41:27;100447.94;;;16.74;100.00
48204;BME280;33994;50.998;5.864;2023-07-31T06:44:30;100455.00;;;16.73;100.00
48204;BME280;33994;50.998;5.864;2023-07-31T06:47:35;100456.91;;;16.70;100.00
48204;BME280;33994;50.998;5.864;2023-07-31T06:50:38;100443.16;;;16.63;100.00
48204;BME280;33994;50.998;5.864;2023-07-31T06:53:41;100454.00;;;16.57;100.00
48204;BME280;33994;50.998;5.864;2023-07-31T06:56:44;100440.09;;;16.53;100.00
48204;BME280;33994;50.998;5.864;2023-07-31T06:59:48;100436.84;;;16.47;100.00
48204;BME280;33994;50.998;5.864;2023-07-31T07:02:52;100431.75;;;16.44;100.00
48204;BME280;33994;50.998;5.864;2023-07-31T07:05:55;100425.78;;;16.39;100.00
48204;BME280;33994;50.998;5.864;2023-07-31T07:08:59;100440.84;;;16.37;100.00
48204;BME280;33994;50.998;5.864;2023-07-31T07:12:02;100450.69;;;16.33;100.00
48204;BME280;33994;50.998;5.864;2023-07-31T07:15:06;100450.75;;;16.32;100.00
48204;BME280;33994;50.998;5.864;2023-07-31T07:18:11;100439.53;;;16.26;100.00
48204;BME280;33994;50.998;5.864;2023-07-31T07:21:14;100436.09;;;16.24;100.00
48204;BME280;33994;50.998;5.864;2023-07-31T07:24:18;100434.41;;;16.23;100.00
48204;BME280;33994;50.998;5.864;2023-07-31T07:27:21;100445.34;;;16.35;100.00
48204;BME280;33994;50.998;5.864;2023-07-31T07:30:24;100438.28;;;16.35;100.00
48204;BME280;33994;50.998;5.864;2023-07-31T07:33:29;100429.63;;;16.32;100.00
48204;BME280;33994;50.998;5.864;2023-07-31T07:36:32;100423.28;;;16.36;100.00
48204;BME280;33994;50.998;5.864;2023-07-31T07:39:35;100407.31;;;16.39;100.00
48204;BME280;33994;50.998;5.864;2023-07-31T07:42:38;100414.66;;;16.51;100.00
48204;BME280;33994;50.998;5.864;2023-07-31T07:45:42;100407.13;;;16.62;100.00
48204;BME280;33994;50.998;5.864;2023-07-31T07:48:46;100405.91;;;16.69;100.00
48204;BME280;33994;50.998;5.864;2023-07-31T07:51:50;100397.50;;;16.80;100.00
48204;BME280;33994;50.998;5.864;2023-07-31T07:54:53;100396.06;;;16.92;100.00
48204;BME280;33994;50.998;5.864;2023-07-31T07:57:56;100393.16;;;16.98;100.00
48204;BME280;33994;50.998;5.864;2023-07-31T08:00:59;100399.91;;;17.03;100.00
48204;BME280;33994;50.998;5.864;2023-07-31T08:04:04;100405.28;;;17.02;100.00
48204;BME280;33994;50.998;5.864;2023-07-31T08:07:07;100394.00;;;16.98;100.00
48204;BME280;33994;50.998;5.864;2023-07-31T08:10:10;100394.38;;;16.91;100.00
48204;BME280;33994;50.998;5.864;2023-07-31T08:13:13;100395.44;;;16.87;100.00
48204;BME280;33994;50.998;5.864;2023-07-31T08:16:16;100399.06;;;16.84;100.00
48204;BME280;33994;50.998;5.864;2023-07-31T08:19:21;100394.72;;;16.83;100.00
48204;BME280;33994;50.998;5.864;2023-07-31T08:22:24;100394.78;;;16.82;100.00
48204;BME280;33994;50.998;5.864;2023-07-31T08:25:28;100392.94;;;16.84;100.00
48204;BME280;33994;50.998;5.864;2023-07-31T08:28:31;100388.22;;;16.90;100.00
48204;BME280;33994;50.998;5.864;2023-07-31T08:31:34;100397.72;;;16.94;100.00
48204;BME280;33994;50.998;5.864;2023-07-31T08:34:39;100394.22;;;16.94;100.00
48204;BME280;33994;50.998;5.864;2023-07-31T08:37:42;100392.66;;;16.90;100.00
48204;BME280;33994;50.998;5.864;2023-07-31T08:40:45;100396.22;;;16.89;100.00
48204;BME280;33994;50.998;5.864;2023-07-31T08:43:49;100389.22;;;16.88;100.00
48204;BME280;33994;50.998;5.864;2023-07-31T08:46:53;100391.59;;;16.94;100.00
48204;BME280;33994;50.998;5.864;2023-07-31T08:49:58;100388.94;;;16.94;100.00
48204;BME280;33994;50.998;5.864;2023-07-31T08:53:01;100389.84;;;16.93;100.00
48204;BME280;33994;50.998;5.864;2023-07-31T08:56:05;100395.06;;;16.94;100.00
48204;BME280;33994;50.998;5.864;2023-07-31T08:59:11;100393.38;;;16.93;100.00
48204;BME280;33994;50.998;5.864;2023-07-31T09:02:15;100383.34;;;17.00;100.00
48204;BME280;33994;50.998;5.864;2023-07-31T09:05:21;100391.91;;;17.05;100.00
48204;BME280;33994;50.998;5.864;2023-07-31T09:08:30;100385.63;;;17.08;100.00
48204;BME280;33994;50.998;5.864;2023-07-31T09:11:34;100378.00;;;17.01;100.00
48204;BME280;33994;50.998;5.864;2023-07-31T09:14:37;100381.50;;;17.02;100.00
48204;BME280;33994;50.998;5.864;2023-07-31T09:17:40;100379.09;;;16.97;100.00
48204;BME280;33994;50.998;5.864;2023-07-31T09:20:45;100382.72;;;16.95;100.00
48204;BME280;33994;50.998;5.864;2023-07-31T09:23:49;100384.41;;;16.96;100.00
48204;BME280;33994;50.998;5.864;2023-07-31T09:26:53;100388.84;;;16.95;100.00
48204;BME280;33994;50.998;5.864;2023-07-31T09:29:58;100381.94;;;16.93;100.00
48204;BME280;33994;50.998;5.864;2023-07-31T09:33:04;100376.81;;;16.90;100.00
48204;BME280;33994;50.998;5.864;2023-07-31T09:36:08;100380.84;;;16.97;100.00
48204;BME280;33994;50.998;5.864;2023-07-31T09:39:12;100370.06;;;17.01;100.00
48204;BME280;33994;50.998;5.864;2023-07-31T09:42:25;100369.00;;;17.06;100.00
48204;BME280;33994;50.998;5.864;2023-07-31T09:45:28;100367.91;;;17.10;100.00
48204;BME280;33994;50.998;5.864;2023-07-31T09:48:32;100365.19;;;17.11;100.00
48204;BME280;33994;50.998;5.864;2023-07-31T09:51:37;100372.03;;;17.15;100.00
48204;BME280;33994;50.998;5.864;2023-07-31T09:54:40;100363.00;;;17.19;100.00
48204;BME280;33994;50.998;5.864;2023-07-31T09:57:45;100359.28;;;17.23;100.00
48204;BME280;33994;50.998;5.864;2023-07-31T10:00:49;100362.44;;;17.32;100.00
48204;BME280;33994;50.998;5.864;2023-07-31T10:03:52;100353.47;;;17.34;100.00
48204;BME280;33994;50.998;5.864;2023-07-31T10:06:57;100355.09;;;17.37;100.00
48204;BME280;33994;50.998;5.864;2023-07-31T10:10:04;100360.25;;;17.40;100.00
48204;BME280;33994;50.998;5.864;2023-07-31T10:13:08;100359.41;;;17.39;100.00
48204;BME280;33994;50.998;5.864;2023-07-31T10:16:12;100360.06;;;17.43;100.00
48204;BME280;33994;50.998;5.864;2023-07-31T10:19:16;100360.72;;;17.48;100.00
48204;BME280;33994;50.998;5.864;2023-07-31T10:22:22;100360.56;;;17.51;100.00
48204;BME280;33994;50.998;5.864;2023-07-31T10:25:26;100362.16;;;17.54;100.00
48204;BME280;33994;50.998;5.864;2023-07-31T10:28:32;100356.72;;;17.57;100.00
48204;BME280;33994;50.998;5.864;2023-07-31T10:31:36;100352.00;;;17.63;100.00
48204;BME280;33994;50.998;5.864;2023-07-31T10:34:40;100338.25;;;17.74;100.00
48204;BME280;33994;50.998;5.864;2023-07-31T10:37:44;100333.31;;;17.84;99.39
48204;BME280;33994;50.998;5.864;2023-07-31T10:40:49;100326.31;;;17.83;98.72
48204;BME280;33994;50.998;5.864;2023-07-31T10:43:54;100335.09;;;17.83;98.14
48204;BME280;33994;50.998;5.864;2023-07-31T10:47:00;100342.03;;;17.86;97.62
48204;BME280;33994;50.998;5.864;2023-07-31T10:50:17;100328.03;;;17.84;97.72
48204;BME280;33994;50.998;5.864;2023-07-31T10:53:26;100318.06;;;17.89;97.77
48204;BME280;33994;50.998;5.864;2023-07-31T10:56:37;100327.38;;;17.96;97.19
48204;BME280;33994;50.998;5.864;2023-07-31T10:59:40;100333.19;;;18.03;96.87
48204;BME280;33994;50.998;5.864;2023-07-31T11:02:56;100327.84;;;18.04;95.93
48204;BME280;33994;50.998;5.864;2023-07-31T11:06:02;100330.28;;;18.07;95.75
48204;BME280;33994;50.998;5.864;2023-07-31T11:09:06;100324.00;;;18.10;96.10
48204;BME280;33994;50.998;5.864;2023-07-31T11:12:09;100341.50;;;18.12;97.22
48204;BME280;33994;50.998;5.864;2023-07-31T11:15:13;100335.84;;;18.18;97.87
48204;BME280;33994;50.998;5.864;2023-07-31T11:18:16;100334.75;;;18.22;97.88
48204;BME280;33994;50.998;5.864;2023-07-31T11:21:21;100332.31;;;18.19;98.25
48204;BME280;33994;50.998;5.864;2023-07-31T11:24:26;100344.16;;;18.12;99.57
48204;BME280;33994;50.998;5.864;2023-07-31T11:27:30;100346.16;;;18.07;100.00
48204;BME280;33994;50.998;5.864;2023-07-31T11:30:33;100347.22;;;18.05;100.00
48204;BME280;33994;50.998;5.864;2023-07-31T11:33:36;100342.81;;;18.04;100.00
48204;BME280;33994;50.998;5.864;2023-07-31T11:36:40;100335.13;;;17.99;100.00
48204;BME280;33994;50.998;5.864;2023-07-31T11:39:58;100335.13;;;17.99;100.00
48204;BME280;33994;50.998;5.864;2023-07-31T11:43:04;100335.31;;;17.96;100.00
48204;BME280;33994;50.998;5.864;2023-07-31T11:46:09;100330.25;;;17.91;100.00
48204;BME280;33994;50.998;5.864;2023-07-31T11:49:12;100332.31;;;17.86;100.00
48204;BME280;33994;50.998;5.864;2023-07-31T11:52:15;100327.16;;;17.83;100.00
48204;BME280;33994;50.998;5.864;2023-07-31T11:55:22;100326.06;;;17.87;100.00
48204;BME280;33994;50.998;5.864;2023-07-31T11:58:25;100321.38;;;17.92;100.00
48204;BME280;33994;50.998;5.864;2023-07-31T12:01:29;100325.19;;;18.04;100.00
48204;BME280;33994;50.998;5.864;2023-07-31T12:04:33;100306.91;;;18.15;100.00
48204;BME280;33994;50.998;5.864;2023-07-31T12:07:44;100318.88;;;18.22;100.00
48204;BME280;33994;50.998;5.864;2023-07-31T12:10:49;100308.91;;;18.28;100.00
48204;BME280;33994;50.998;5.864;2023-07-31T12:13:53;100308.72;;;18.31;100.00
48204;BME280;33994;50.998;5.864;2023-07-31T12:16:57;100307.78;;;18.32;100.00
48204;BME280;33994;50.998;5.864;2023-07-31T12:20:04;100304.53;;;18.27;100.00
48204;BME280;33994;50.998;5.864;2023-07-31T12:23:07;100303.00;;;18.22;100.00
48204;BME280;33994;50.998;5.864;2023-07-31T12:26:16;100311.72;;;18.24;100.00
48204;BME280;33994;50.998;5.864;2023-07-31T12:29:19;100308.13;;;18.26;100.00
48204;BME280;33994;50.998;5.864;2023-07-31T12:32:24;100304.38;;;18.30;100.00
48204;BME280;33994;50.998;5.864;2023-07-31T12:35:34;100296.00;;;18.37;99.20
48204;BME280;33994;50.998;5.864;2023-07-31T12:38:38;100284.06;;;18.46;98.24
48204;BME280;33994;50.998;5.864;2023-07-31T12:41:43;100269.19;;;18.59;97.51
48204;BME280;33994;50.998;5.864;2023-07-31T12:44:46;100257.91;;;18.71;97.21
48204;BME280;33994;50.998;5.864;2023-07-31T12:47:49;100250.38;;;18.80;95.72
48204;BME280;33994;50.998;5.864;2023-07-31T12:50:53;100236.66;;;18.87;94.66
48204;BME280;33994;50.998;5.864;2023-07-31T12:53:56;100219.41;;;18.96;94.39
48204;BME280;33994;50.998;5.864;2023-07-31T12:57:00;100216.28;;;19.04;93.35
48204;BME280;33994;50.998;5.864;2023-07-31T13:00:05;100211.19;;;19.15;92.83
48204;BME280;33994;50.998;5.864;2023-07-31T13:03:08;100214.13;;;19.25;92.47
48204;BME280;33994;50.998;5.864;2023-07-31T13:06:11;100214.22;;;19.37;91.78
48204;BME280;33994;50.998;5.864;2023-07-31T13:09:14;100203.59;;;19.53;90.89
48204;BME280;33994;50.998;5.864;2023-07-31T13:12:19;100193.91;;;19.66;89.79
48204;BME280;33994;50.998;5.864;2023-07-31T13:15:22;100205.84;;;19.74;88.37
48204;BME280;33994;50.998;5.864;2023-07-31T13:18:25;100207.34;;;19.78;87.47
48204;BME280;33994;50.998;5.864;2023-07-31T13:21:28;100217.97;;;19.78;86.79
48204;BME280;33994;50.998;5.864;2023-07-31T13:24:31;100215.69;;;19.72;86.28
48204;BME280;33994;50.998;5.864;2023-07-31T13:27:36;100217.13;;;19.63;85.62
48204;BME280;33994;50.998;5.864;2023-07-31T13:30:39;100221.28;;;19.53;85.44
48204;BME280;33994;50.998;5.864;2023-07-31T13:33:42;100220.00;;;19.44;85.67
48204;BME280;33994;50.998;5.864;2023-07-31T13:36:45;100228.38;;;19.38;85.83
48204;BME280;33994;50.998;5.864;2023-07-31T13:39:49;100226.06;;;19.32;85.95
48204;BME280;33994;50.998;5.864;2023-07-31T13:42:53;100223.03;;;19.24;85.93
48204;BME280;33994;50.998;5.864;2023-07-31T13:45:56;100234.84;;;19.18;86.05
48204;BME280;33994;50.998;5.864;2023-07-31T13:48:59;100237.59;;;19.16;86.17
48204;BME280;33994;50.998;5.864;2023-07-31T13:52:03;100239.69;;;19.11;86.04
48204;BME280;33994;50.998;5.864;2023-07-31T13:55:07;100230.97;;;19.09;85.82
48204;BME280;33994;50.998;5.864;2023-07-31T13:58:12;100236.25;;;19.09;85.88
48204;BME280;33994;50.998;5.864;2023-07-31T14:01:15;100229.25;;;19.08;85.94
48204;BME280;33994;50.998;5.864;2023-07-31T14:04:18;100213.53;;;19.05;85.82
48204;BME280;33994;50.998;5.864;2023-07-31T14:07:21;100215.22;;;19.06;85.57
48204;BME280;33994;50.998;5.864;2023-07-31T14:10:24;100219.34;;;19.12;85.37
48204;BME280;33994;50.998;5.864;2023-07-31T14:13:29;100199.34;;;19.20;84.96
48204;BME280;33994;50.998;5.864;2023-07-31T14:16:32;100194.53;;;19.27;84.47
48204;BME280;33994;50.998;5.864;2023-07-31T14:19:35;100180.34;;;19.28;83.94
48204;BME280;33994;50.998;5.864;2023-07-31T14:22:39;100166.22;;;19.28;83.87
48204;BME280;33994;50.998;5.864;2023-07-31T14:25:42;100169.84;;;19.27;84.00
48204;BME280;33994;50.998;5.864;2023-07-31T14:28:46;100170.03;;;19.24;84.06
48204;BME280;33994;50.998;5.864;2023-07-31T14:31:49;100173.63;;;19.23;84.14
48204;BME280;33994;50.998;5.864;2023-07-31T14:34:53;100181.84;;;19.18;84.28
48204;BME280;33994;50.998;5.864;2023-07-31T14:37:56;100177.78;;;19.12;84.49
48204;BME280;33994;50.998;5.864;2023-07-31T14:40:59;100177.22;;;19.07;84.48
48204;BME280;33994;50.998;5.864;2023-07-31T14:44:03;100175.66;;;19.03;84.55
48204;BME280;33994;50.998;5.864;2023-07-31T14:47:06;100162.63;;;19.00;84.74
48204;BME280;33994;50.998;5.864;2023-07-31T14:50:10;100163.47;;;19.01;84.77
48204;BME280;33994;50.998;5.864;2023-07-31T14:53:13;100166.19;;;18.99;84.82
48204;BME280;33994;50.998;5.864;2023-07-31T14:56:16;100164.50;;;18.98;85.24
48204;BME280;33994;50.998;5.864;2023-07-31T14:59:21;100159.38;;;18.95;85.77
48204;BME280;33994;50.998;5.864;2023-07-31T15:02:25;100162.25;;;18.92;86.76
48204;BME280;33994;50.998;5.864;2023-07-31T15:05:28;100159.75;;;18.89;88.63
48204;BME280;33994;50.998;5.864;2023-07-31T15:08:31;100156.91;;;18.78;90.21
48204;BME280;33994;50.998;5.864;2023-07-31T15:11:35;100144.97;;;18.70;91.41
48204;BME280;33994;50.998;5.864;2023-07-31T15:14:39;100143.63;;;18.63;92.61
48204;BME280;33994;50.998;5.864;2023-07-31T15:17:42;100142.16;;;18.58;93.23
48204;BME280;33994;50.998;5.864;2023-07-31T15:20:46;100162.84;;;18.51;94.37
48204;BME280;33994;50.998;5.864;2023-07-31T15:23:49;100148.09;;;18.47;95.28
48204;BME280;33994;50.998;5.864;2023-07-31T15:26:52;100131.41;;;18.45;96.08
48204;BME280;33994;50.998;5.864;2023-07-31T15:29:57;100142.47;;;18.37;96.25
48204;BME280;33994;50.998;5.864;2023-07-31T15:33:00;100145.47;;;18.31;97.25
48204;BME280;33994;50.998;5.864;2023-07-31T15:36:04;100143.56;;;18.33;97.99
48204;BME280;33994;50.998;5.864;2023-07-31T15:39:07;100121.81;;;18.28;98.51
48204;BME280;33994;50.998;5.864;2023-07-31T16:08:31;100083.63;;;17.39;100.00
48204;BME280;33994;50.998;5.864;2023-07-31T16:11:34;100074.78;;;17.40;100.00
48204;BME280;33994;50.998;5.864;2023-07-31T16:14:37;100064.22;;;17.40;100.00
48204;BME280;33994;50.998;5.864;2023-07-31T16:17:41;100066.06;;;17.38;100.00
48204;BME280;33994;50.998;5.864;2023-07-31T16:20:44;100067.75;;;17.39;100.00
48204;BME280;33994;50.998;5.864;2023-07-31T16:23:48;100071.19;;;17.41;100.00
48204;BME280;33994;50.998;5.864;2023-07-31T16:26:52;100064.28;;;17.38;100.00